MAS726 WIII-WMKK
Flight info
| Callsign | MAS726 |
|---|---|
| Flight time | 1h 45m |
| Altitude | 38000 |
| Route | DOLTA A585 PKU N633 SALAX SALAX1H |
| Aircraft | B38M/M-SDE1FGHILORVWXY/HB1 |
Departure
| Time | 2026-05-06 13:06 |
|---|---|
| Airport | Soekarno-Hatta International Airport (WIII) |
Arrival
| Time | 2026-05-06 14:51 |
|---|---|
| Airport | Kuala Lumpur International Airport (WMKK) |
| Time | Latitude | Longitude | Altitude | Speed | Heading |
|---|---|---|---|---|---|
| 2026-05-06 11:56 | -6.11761 | 106.66465 | 40 ft | 0 kts | 158° |
| 2026-05-06 12:39 | -6.11768 | 106.66454 | 40 ft | 0 kts | 133° |
| 2026-05-06 12:47 | -6.11761 | 106.66447 | 37 ft | 4 kts | 135° |
| 2026-05-06 12:47 | -6.11741 | 106.66429 | 40 ft | 4 kts | 142° |
| 2026-05-06 12:47 | -6.11719 | 106.66413 | 40 ft | 4 kts | 148° |
| 2026-05-06 12:47 | -6.11695 | 106.66399 | 39 ft | 4 kts | 147° |
| 2026-05-06 12:48 | -6.11678 | 106.66384 | 39 ft | 4 kts | 101° |
| 2026-05-06 12:48 | -6.11678 | 106.66378 | 40 ft | 1 kts | 69° |
| 2026-05-06 12:49 | -6.11677 | 106.66378 | 40 ft | 0 kts | 69° |
| 2026-05-06 12:49 | -6.11673 | 106.66389 | 39 ft | 3 kts | 69° |
| 2026-05-06 12:50 | -6.11662 | 106.66415 | 40 ft | 4 kts | 59° |
| 2026-05-06 12:50 | -6.11655 | 106.66418 | 40 ft | 0 kts | 356° |
| 2026-05-06 12:50 | -6.11642 | 106.66414 | 40 ft | 8 kts | 343° |
| 2026-05-06 12:50 | -6.11567 | 106.66381 | 40 ft | 14 kts | 337° |
| 2026-05-06 12:51 | -6.11470 | 106.66342 | 40 ft | 16 kts | 339° |
| 2026-05-06 12:51 | -6.11386 | 106.66310 | 41 ft | 11 kts | 336° |
| 2026-05-06 12:51 | -6.11358 | 106.66243 | 41 ft | 12 kts | 254° |
| 2026-05-06 12:51 | -6.11389 | 106.66158 | 41 ft | 14 kts | 248° |
| 2026-05-06 12:52 | -6.11429 | 106.66060 | 41 ft | 16 kts | 248° |
| 2026-05-06 12:52 | -6.11470 | 106.65948 | 39 ft | 18 kts | 247° |
| 2026-05-06 12:52 | -6.11521 | 106.65825 | 40 ft | 20 kts | 248° |
| 2026-05-06 12:52 | -6.11573 | 106.65697 | 40 ft | 19 kts | 248° |
| 2026-05-06 12:53 | -6.11624 | 106.65568 | 40 ft | 21 kts | 248° |
| 2026-05-06 12:53 | -6.11679 | 106.65430 | 41 ft | 22 kts | 248° |
| 2026-05-06 12:53 | -6.11738 | 106.65281 | 41 ft | 24 kts | 248° |
| 2026-05-06 12:53 | -6.11802 | 106.65121 | 41 ft | 25 kts | 249° |
| 2026-05-06 12:54 | -6.11864 | 106.64967 | 42 ft | 21 kts | 248° |
| 2026-05-06 12:54 | -6.11920 | 106.64824 | 41 ft | 23 kts | 248° |
| 2026-05-06 12:54 | -6.11959 | 106.64731 | 40 ft | 14 kts | 248° |
| 2026-05-06 12:54 | -6.11989 | 106.64656 | 42 ft | 12 kts | 249° |
| 2026-05-06 12:55 | -6.12022 | 106.64568 | 41 ft | 15 kts | 248° |
| 2026-05-06 12:55 | -6.12063 | 106.64466 | 40 ft | 17 kts | 248° |
| 2026-05-06 12:55 | -6.12111 | 106.64351 | 41 ft | 19 kts | 248° |
| 2026-05-06 12:55 | -6.12151 | 106.64246 | 41 ft | 15 kts | 249° |
| 2026-05-06 12:56 | -6.12184 | 106.64164 | 41 ft | 11 kts | 248° |
| 2026-05-06 12:56 | -6.12215 | 106.64088 | 41 ft | 13 kts | 246° |
| 2026-05-06 12:56 | -6.12247 | 106.64007 | 40 ft | 4 kts | 249° |
| 2026-05-06 12:56 | -6.12254 | 106.63989 | 42 ft | 4 kts | 250° |
| 2026-05-06 12:57 | -6.12257 | 106.63979 | 42 ft | 0 kts | 253° |
| 2026-05-06 12:59 | -6.12260 | 106.63968 | 42 ft | 3 kts | 258° |
| 2026-05-06 12:59 | -6.12260 | 106.63943 | 42 ft | 5 kts | 280° |
| 2026-05-06 12:59 | -6.12243 | 106.63911 | 40 ft | 6 kts | 313° |
| 2026-05-06 13:00 | -6.12239 | 106.63907 | 42 ft | 0 kts | 320° |
| 2026-05-06 13:00 | -6.12237 | 106.63906 | 43 ft | 1 kts | 320° |
| 2026-05-06 13:01 | -6.12228 | 106.63900 | 43 ft | 0 kts | 329° |
| 2026-05-06 13:02 | -6.12227 | 106.63899 | 43 ft | 1 kts | 329° |
| 2026-05-06 13:02 | -6.12211 | 106.63892 | 43 ft | 6 kts | 340° |
| 2026-05-06 13:03 | -6.12143 | 106.63904 | 44 ft | 13 kts | 28° |
| 2026-05-06 13:03 | -6.12067 | 106.63968 | 42 ft | 15 kts | 65° |
| 2026-05-06 13:03 | -6.12055 | 106.63997 | 43 ft | 0 kts | 67° |
| 2026-05-06 13:05 | -6.12049 | 106.64012 | 41 ft | 15 kts | 67° |
| 2026-05-06 13:05 | -6.11910 | 106.64358 | 42 ft | 91 kts | 68° |
| 2026-05-06 13:06 | -6.11590 | 106.65155 | 46 ft | 152 kts | 68° |
| 2026-05-06 13:06 | -6.11155 | 106.66237 | 334 ft | 179 kts | 68° |
| 2026-05-06 13:06 | -6.10666 | 106.67477 | 808 ft | 202 kts | 69° |
| 2026-05-06 13:06 | -6.10135 | 106.68727 | 1816 ft | 193 kts | 60° |
| 2026-05-06 13:07 | -6.09163 | 106.69749 | 2293 ft | 215 kts | 33° |
| 2026-05-06 13:07 | -6.07782 | 106.70496 | 2805 ft | 235 kts | 29° |
| 2026-05-06 13:07 | -6.06307 | 106.71271 | 3510 ft | 243 kts | 30° |
| 2026-05-06 13:07 | -6.04817 | 106.72078 | 4323 ft | 245 kts | 30° |
| 2026-05-06 13:08 | -6.03298 | 106.72910 | 4793 ft | 250 kts | 31° |
| 2026-05-06 13:08 | -6.01774 | 106.73752 | 5145 ft | 250 kts | 31° |
| 2026-05-06 13:08 | -6.00242 | 106.74576 | 5969 ft | 253 kts | 25° |
| 2026-05-06 13:08 | -5.98499 | 106.74865 | 6850 ft | 259 kts | 358° |
| 2026-05-06 13:09 | -5.96758 | 106.74342 | 7654 ft | 269 kts | 332° |
| 2026-05-06 13:09 | -5.95371 | 106.73072 | 8493 ft | 275 kts | 304° |
| 2026-05-06 13:09 | -5.94483 | 106.71343 | 9307 ft | 282 kts | 296° |
| 2026-05-06 13:09 | -5.93624 | 106.69537 | 9982 ft | 295 kts | 296° |
| 2026-05-06 13:10 | -5.92719 | 106.67618 | 10427 ft | 314 kts | 297° |
| 2026-05-06 13:10 | -5.91465 | 106.65758 | 10797 ft | 331 kts | 317° |
| 2026-05-06 13:10 | -5.89693 | 106.64220 | 11301 ft | 344 kts | 319° |
| 2026-05-06 13:10 | -5.87892 | 106.62585 | 11916 ft | 352 kts | 319° |
| 2026-05-06 13:11 | -5.86109 | 106.60943 | 12715 ft | 355 kts | 318° |
| 2026-05-06 13:11 | -5.84283 | 106.59249 | 13452 ft | 360 kts | 318° |
| 2026-05-06 13:11 | -5.82434 | 106.57529 | 14146 ft | 364 kts | 318° |
| 2026-05-06 13:11 | -5.80575 | 106.55795 | 14840 ft | 367 kts | 318° |
| 2026-05-06 13:12 | -5.78698 | 106.54044 | 15544 ft | 370 kts | 318° |
| 2026-05-06 13:12 | -5.76805 | 106.52279 | 16218 ft | 373 kts | 318° |
| 2026-05-06 13:12 | -5.74897 | 106.50500 | 16890 ft | 375 kts | 318° |
| 2026-05-06 13:12 | -5.72980 | 106.48712 | 17549 ft | 378 kts | 318° |
| 2026-05-06 13:13 | -5.71041 | 106.46904 | 18147 ft | 382 kts | 318° |
| 2026-05-06 13:13 | -5.69087 | 106.45082 | 18695 ft | 384 kts | 318° |
| 2026-05-06 13:13 | -5.67125 | 106.43253 | 19189 ft | 388 kts | 318° |
| 2026-05-06 13:13 | -5.65139 | 106.41402 | 19698 ft | 390 kts | 318° |
| 2026-05-06 13:14 | -5.63795 | 106.40149 | 20047 ft | 391 kts | 318° |
| 2026-05-06 13:14 | -5.61137 | 106.37672 | 20684 ft | 396 kts | 318° |
| 2026-05-06 13:14 | -5.59772 | 106.36399 | 21026 ft | 397 kts | 318° |
| 2026-05-06 13:14 | -5.57764 | 106.34529 | 21504 ft | 400 kts | 318° |
| 2026-05-06 13:15 | -5.55722 | 106.32626 | 21992 ft | 403 kts | 318° |
| 2026-05-06 13:15 | -5.53660 | 106.30705 | 22449 ft | 405 kts | 319° |
| 2026-05-06 13:15 | -5.51581 | 106.28768 | 22801 ft | 410 kts | 319° |
| 2026-05-06 13:15 | -5.49502 | 106.26831 | 22871 ft | 410 kts | 319° |
| 2026-05-06 13:16 | -5.47395 | 106.24869 | 23028 ft | 412 kts | 319° |
| 2026-05-06 13:16 | -5.45297 | 106.22915 | 23517 ft | 413 kts | 319° |
| 2026-05-06 13:16 | -5.43178 | 106.20942 | 23764 ft | 418 kts | 319° |
| 2026-05-06 13:16 | -5.41049 | 106.18959 | 24150 ft | 417 kts | 319° |
| 2026-05-06 13:17 | -5.38917 | 106.16974 | 24520 ft | 420 kts | 319° |
| 2026-05-06 13:17 | -5.36769 | 106.14975 | 24861 ft | 423 kts | 319° |
| 2026-05-06 13:17 | -5.34607 | 106.12962 | 25231 ft | 425 kts | 319° |
| 2026-05-06 13:17 | -5.32436 | 106.10941 | 25588 ft | 427 kts | 318° |
| 2026-05-06 13:18 | -5.30252 | 106.08909 | 25937 ft | 430 kts | 318° |
| 2026-05-06 13:18 | -5.28056 | 106.06865 | 26285 ft | 432 kts | 319° |
| 2026-05-06 13:18 | -5.25848 | 106.04811 | 26640 ft | 434 kts | 318° |
| 2026-05-06 13:18 | -5.23624 | 106.02742 | 26988 ft | 437 kts | 318° |
| 2026-05-06 13:19 | -5.21390 | 106.00664 | 27325 ft | 439 kts | 318° |
| 2026-05-06 13:19 | -5.19145 | 105.98577 | 27666 ft | 442 kts | 318° |
| 2026-05-06 13:19 | -5.16885 | 105.96474 | 27997 ft | 444 kts | 318° |
| 2026-05-06 13:19 | -5.14613 | 105.94362 | 28322 ft | 447 kts | 318° |
| 2026-05-06 13:20 | -5.12251 | 105.92350 | 28630 ft | 447 kts | 328° |
| 2026-05-06 13:20 | -5.09548 | 105.90807 | 28959 ft | 448 kts | 333° |
| 2026-05-06 13:20 | -5.06760 | 105.89377 | 29240 ft | 451 kts | 335° |
| 2026-05-06 13:20 | -5.04039 | 105.87802 | 29549 ft | 454 kts | 328° |
| 2026-05-06 13:21 | -5.01335 | 105.86151 | 29842 ft | 456 kts | 330° |
| 2026-05-06 13:21 | -4.98593 | 105.84544 | 30105 ft | 458 kts | 331° |
| 2026-05-06 13:21 | -4.95826 | 105.82946 | 30381 ft | 460 kts | 331° |
| 2026-05-06 13:21 | -4.93043 | 105.81353 | 30641 ft | 462 kts | 332° |
| 2026-05-06 13:22 | -4.90248 | 105.79760 | 30899 ft | 463 kts | 332° |
| 2026-05-06 13:22 | -4.87440 | 105.78160 | 31148 ft | 465 kts | 332° |
| 2026-05-06 13:22 | -4.84626 | 105.76558 | 31420 ft | 467 kts | 332° |
| 2026-05-06 13:22 | -4.81793 | 105.74945 | 31676 ft | 469 kts | 332° |
| 2026-05-06 13:23 | -4.78954 | 105.73329 | 31929 ft | 470 kts | 332° |
| 2026-05-06 13:23 | -4.76102 | 105.71705 | 32174 ft | 472 kts | 332° |
| 2026-05-06 13:23 | -4.73244 | 105.70079 | 32443 ft | 473 kts | 332° |
| 2026-05-06 13:23 | -4.70385 | 105.68451 | 32690 ft | 475 kts | 332° |
| 2026-05-06 13:24 | -4.67507 | 105.66814 | 32919 ft | 476 kts | 332° |
| 2026-05-06 13:24 | -4.64617 | 105.65168 | 33159 ft | 479 kts | 332° |
| 2026-05-06 13:24 | -4.61723 | 105.63522 | 33482 ft | 478 kts | 331° |
| 2026-05-06 13:24 | -4.58840 | 105.61883 | 33737 ft | 476 kts | 332° |
| 2026-05-06 13:25 | -4.55961 | 105.60244 | 34033 ft | 476 kts | 331° |
| 2026-05-06 13:25 | -4.53081 | 105.58606 | 34300 ft | 476 kts | 331° |
| 2026-05-06 13:25 | -4.50201 | 105.56969 | 34644 ft | 475 kts | 331° |
| 2026-05-06 13:25 | -4.47343 | 105.55340 | 34987 ft | 472 kts | 331° |
| 2026-05-06 13:26 | -4.44489 | 105.53720 | 35268 ft | 472 kts | 331° |
| 2026-05-06 13:26 | -4.41635 | 105.52097 | 35573 ft | 471 kts | 331° |
| 2026-05-06 13:26 | -4.38783 | 105.50477 | 35792 ft | 471 kts | 331° |
| 2026-05-06 13:27 | -4.33121 | 105.47257 | 35862 ft | 466 kts | 331° |
| 2026-05-06 13:27 | -4.27488 | 105.44055 | 35870 ft | 466 kts | 331° |
| 2026-05-06 13:28 | -4.21858 | 105.40856 | 35867 ft | 466 kts | 331° |
| 2026-05-06 13:28 | -4.16259 | 105.37674 | 35866 ft | 466 kts | 331° |
| 2026-05-06 13:29 | -4.10623 | 105.34472 | 35864 ft | 466 kts | 331° |
| 2026-05-06 13:29 | -4.04993 | 105.31275 | 35864 ft | 466 kts | 331° |
| 2026-05-06 13:30 | -3.99349 | 105.28069 | 35868 ft | 467 kts | 331° |
| 2026-05-06 13:30 | -3.93684 | 105.24852 | 35967 ft | 469 kts | 331° |
| 2026-05-06 13:30 | -3.90840 | 105.23248 | 36244 ft | 469 kts | 331° |
| 2026-05-06 13:31 | -3.88001 | 105.21650 | 36513 ft | 468 kts | 331° |
| 2026-05-06 13:31 | -3.85166 | 105.20053 | 36781 ft | 467 kts | 331° |
| 2026-05-06 13:31 | -3.82337 | 105.18460 | 37062 ft | 467 kts | 331° |
| 2026-05-06 13:31 | -3.79512 | 105.16869 | 37337 ft | 465 kts | 331° |
| 2026-05-06 13:32 | -3.76691 | 105.15281 | 37616 ft | 464 kts | 331° |
| 2026-05-06 13:32 | -3.73876 | 105.13696 | 37852 ft | 464 kts | 331° |
| 2026-05-06 13:32 | -3.71066 | 105.12112 | 37878 ft | 463 kts | 331° |
| 2026-05-06 13:33 | -3.65482 | 105.08974 | 37869 ft | 459 kts | 331° |
| 2026-05-06 13:33 | -3.59884 | 105.05821 | 37857 ft | 463 kts | 331° |
| 2026-05-06 13:34 | -3.54268 | 105.02661 | 37887 ft | 463 kts | 331° |
| 2026-05-06 13:34 | -3.48657 | 104.99499 | 37865 ft | 462 kts | 331° |
| 2026-05-06 13:35 | -3.43062 | 104.96355 | 37943 ft | 463 kts | 331° |
| 2026-05-06 13:35 | -3.40242 | 104.94766 | 37834 ft | 461 kts | 331° |
| 2026-05-06 13:35 | -3.37458 | 104.93201 | 37882 ft | 462 kts | 331° |
| 2026-05-06 13:36 | -3.32097 | 104.90187 | 37879 ft | 462 kts | 332° |
| 2026-05-06 13:36 | -3.26508 | 104.87045 | 37790 ft | 460 kts | 332° |
| 2026-05-06 13:37 | -3.20925 | 104.83895 | 37825 ft | 462 kts | 332° |
| 2026-05-06 13:37 | -3.15339 | 104.80762 | 37883 ft | 461 kts | 332° |
| 2026-05-06 13:38 | -3.09743 | 104.77609 | 37845 ft | 463 kts | 331° |
| 2026-05-06 13:38 | -3.04144 | 104.74468 | 37868 ft | 461 kts | 332° |
| 2026-05-06 13:39 | -2.98556 | 104.71331 | 37864 ft | 459 kts | 331° |
| 2026-05-06 13:39 | -2.93007 | 104.68212 | 37832 ft | 459 kts | 332° |
| 2026-05-06 13:40 | -2.87557 | 104.64920 | 37758 ft | 459 kts | 319° |
| 2026-05-06 13:40 | -2.85313 | 104.62671 | 37880 ft | 456 kts | 317° |
| 2026-05-06 13:40 | -2.82975 | 104.60509 | 37835 ft | 459 kts | 317° |
| 2026-05-06 13:41 | -2.78348 | 104.56040 | 37835 ft | 462 kts | 317° |
| 2026-05-06 13:41 | -2.74076 | 104.51876 | 37876 ft | 462 kts | 317° |
| 2026-05-06 13:42 | -2.69477 | 104.47392 | 37964 ft | 464 kts | 317° |
| 2026-05-06 13:42 | -2.67176 | 104.45144 | 37851 ft | 460 kts | 317° |
| 2026-05-06 13:42 | -2.64882 | 104.42898 | 37885 ft | 462 kts | 317° |
| 2026-05-06 13:43 | -2.60297 | 104.38446 | 37952 ft | 460 kts | 317° |
| 2026-05-06 13:43 | -2.58003 | 104.36204 | 37836 ft | 461 kts | 317° |
| 2026-05-06 13:43 | -2.55711 | 104.33971 | 37917 ft | 459 kts | 317° |
| 2026-05-06 13:43 | -2.53415 | 104.31734 | 37798 ft | 464 kts | 317° |
| 2026-05-06 13:44 | -2.51115 | 104.29490 | 37922 ft | 460 kts | 318° |
| 2026-05-06 13:44 | -2.46512 | 104.25004 | 37903 ft | 462 kts | 318° |
| 2026-05-06 13:45 | -2.41906 | 104.20520 | 37874 ft | 459 kts | 317° |
| 2026-05-06 13:45 | -2.35016 | 104.13807 | 37925 ft | 462 kts | 317° |
| 2026-05-06 13:46 | -2.32712 | 104.11560 | 37798 ft | 462 kts | 317° |
| 2026-05-06 13:46 | -2.30417 | 104.09322 | 37865 ft | 461 kts | 317° |
| 2026-05-06 13:46 | -2.25796 | 104.04826 | 37873 ft | 463 kts | 317° |
| 2026-05-06 13:47 | -2.21190 | 104.00342 | 37896 ft | 462 kts | 317° |
| 2026-05-06 13:47 | -2.16579 | 103.95847 | 37864 ft | 463 kts | 317° |
| 2026-05-06 13:48 | -2.14248 | 103.93601 | 37862 ft | 465 kts | 317° |
| 2026-05-06 13:48 | -2.09893 | 103.89336 | 37875 ft | 463 kts | 317° |
| 2026-05-06 13:49 | -2.05275 | 103.84842 | 37866 ft | 465 kts | 316° |
| 2026-05-06 13:49 | -2.00630 | 103.80318 | 37950 ft | 468 kts | 317° |
| 2026-05-06 13:50 | -1.98286 | 103.78035 | 37823 ft | 470 kts | 317° |
| 2026-05-06 13:50 | -1.95951 | 103.75767 | 37918 ft | 467 kts | 316° |
| 2026-05-06 13:50 | -1.91310 | 103.71248 | 37831 ft | 468 kts | 317° |
| 2026-05-06 13:51 | -1.88992 | 103.68982 | 37945 ft | 467 kts | 317° |
| 2026-05-06 13:51 | -1.86630 | 103.66680 | 37840 ft | 468 kts | 317° |
| 2026-05-06 13:51 | -1.82004 | 103.62196 | 37824 ft | 468 kts | 316° |
| 2026-05-06 13:52 | -1.77358 | 103.57670 | 37874 ft | 468 kts | 316° |
| 2026-05-06 13:52 | -1.72705 | 103.53137 | 37810 ft | 467 kts | 316° |
| 2026-05-06 13:53 | -1.68055 | 103.48616 | 37865 ft | 469 kts | 317° |
| 2026-05-06 13:53 | -1.63381 | 103.44075 | 37883 ft | 468 kts | 316° |
| 2026-05-06 13:54 | -1.58701 | 103.39516 | 37892 ft | 468 kts | 316° |
| 2026-05-06 13:54 | -1.53987 | 103.34921 | 37857 ft | 469 kts | 317° |
| 2026-05-06 13:55 | -1.49348 | 103.30414 | 37872 ft | 469 kts | 317° |
| 2026-05-06 13:55 | -1.44645 | 103.25846 | 37862 ft | 467 kts | 316° |
| 2026-05-06 13:56 | -1.40031 | 103.21348 | 37877 ft | 469 kts | 317° |
| 2026-05-06 13:56 | -1.35363 | 103.16824 | 37856 ft | 471 kts | 316° |
| 2026-05-06 13:57 | -1.30713 | 103.12282 | 37865 ft | 467 kts | 317° |
| 2026-05-06 13:57 | -1.26053 | 103.07746 | 37873 ft | 471 kts | 317° |
| 2026-05-06 13:58 | -1.21379 | 103.03205 | 37852 ft | 467 kts | 317° |
| 2026-05-06 13:58 | -1.16746 | 102.98710 | 37854 ft | 467 kts | 317° |
| 2026-05-06 13:59 | -1.12092 | 102.94180 | 37904 ft | 470 kts | 317° |
| 2026-05-06 13:59 | -1.08222 | 102.90420 | 37898 ft | 465 kts | 317° |
| 2026-05-06 14:00 | -1.03564 | 102.85897 | 37847 ft | 467 kts | 316° |
| 2026-05-06 14:00 | -0.98914 | 102.81393 | 37889 ft | 467 kts | 317° |
| 2026-05-06 14:01 | -0.94247 | 102.76858 | 37876 ft | 468 kts | 317° |
| 2026-05-06 14:01 | -0.89596 | 102.72355 | 37852 ft | 464 kts | 317° |
| 2026-05-06 14:02 | -0.84947 | 102.67833 | 37879 ft | 466 kts | 317° |
| 2026-05-06 14:02 | -0.80286 | 102.63338 | 37862 ft | 464 kts | 317° |
| 2026-05-06 14:03 | -0.75648 | 102.58834 | 37851 ft | 464 kts | 317° |
| 2026-05-06 14:03 | -0.73904 | 102.57131 | 38037 ft | 467 kts | 317° |
| 2026-05-06 14:03 | -0.71561 | 102.54856 | 37735 ft | 467 kts | 316° |
| 2026-05-06 14:04 | -0.69260 | 102.52613 | 37989 ft | 462 kts | 316° |
| 2026-05-06 14:04 | -0.66940 | 102.50362 | 37719 ft | 463 kts | 316° |
| 2026-05-06 14:04 | -0.64632 | 102.48145 | 38008 ft | 461 kts | 317° |
| 2026-05-06 14:04 | -0.62315 | 102.45897 | 37705 ft | 461 kts | 316° |
| 2026-05-06 14:05 | -0.60045 | 102.43682 | 38004 ft | 456 kts | 316° |
| 2026-05-06 14:05 | -0.57758 | 102.41460 | 37695 ft | 464 kts | 317° |
| 2026-05-06 14:05 | -0.55438 | 102.39240 | 37874 ft | 459 kts | 317° |
| 2026-05-06 14:05 | -0.53150 | 102.36995 | 37838 ft | 463 kts | 316° |
| 2026-05-06 14:06 | -0.48527 | 102.32505 | 37822 ft | 467 kts | 317° |
| 2026-05-06 14:06 | -0.43869 | 102.27983 | 37920 ft | 468 kts | 317° |
| 2026-05-06 14:07 | -0.41532 | 102.25715 | 37818 ft | 468 kts | 317° |
| 2026-05-06 14:07 | -0.39207 | 102.23465 | 37940 ft | 467 kts | 317° |
| 2026-05-06 14:07 | -0.36868 | 102.21193 | 37831 ft | 470 kts | 317° |
| 2026-05-06 14:07 | -0.34532 | 102.18931 | 37852 ft | 467 kts | 316° |
| 2026-05-06 14:08 | -0.29871 | 102.14413 | 37792 ft | 468 kts | 317° |
| 2026-05-06 14:08 | -0.25229 | 102.09897 | 37907 ft | 469 kts | 316° |
| 2026-05-06 14:09 | -0.22892 | 102.07618 | 37783 ft | 468 kts | 317° |
| 2026-05-06 14:09 | -0.20558 | 102.05365 | 37961 ft | 467 kts | 317° |
| 2026-05-06 14:09 | -0.18201 | 102.03089 | 37797 ft | 472 kts | 316° |
| 2026-05-06 14:09 | -0.15837 | 102.00803 | 37842 ft | 475 kts | 317° |
| 2026-05-06 14:10 | -0.11092 | 101.96190 | 37867 ft | 478 kts | 317° |
| 2026-05-06 14:10 | -0.06312 | 101.91563 | 37902 ft | 480 kts | 317° |
| 2026-05-06 14:11 | -0.03922 | 101.89246 | 37771 ft | 477 kts | 317° |
| 2026-05-06 14:11 | -0.01566 | 101.86958 | 37884 ft | 469 kts | 316° |
| 2026-05-06 14:11 | 0.03136 | 101.82390 | 37852 ft | 474 kts | 317° |
| 2026-05-06 14:12 | 0.07892 | 101.77801 | 37860 ft | 473 kts | 316° |
| 2026-05-06 14:12 | 0.12594 | 101.73223 | 37810 ft | 473 kts | 317° |
| 2026-05-06 14:13 | 0.14947 | 101.70945 | 37957 ft | 472 kts | 316° |
| 2026-05-06 14:13 | 0.17311 | 101.68637 | 37679 ft | 473 kts | 317° |
| 2026-05-06 14:13 | 0.19660 | 101.66382 | 37980 ft | 466 kts | 317° |
| 2026-05-06 14:13 | 0.22010 | 101.64097 | 37638 ft | 472 kts | 316° |
| 2026-05-06 14:14 | 0.24325 | 101.61843 | 37978 ft | 461 kts | 316° |
| 2026-05-06 14:14 | 0.26648 | 101.59596 | 37656 ft | 468 kts | 316° |
| 2026-05-06 14:14 | 0.28993 | 101.57336 | 38020 ft | 460 kts | 316° |
| 2026-05-06 14:14 | 0.31268 | 101.55113 | 37706 ft | 465 kts | 316° |
| 2026-05-06 14:15 | 0.33552 | 101.52873 | 37944 ft | 460 kts | 316° |
| 2026-05-06 14:15 | 0.35880 | 101.50633 | 37719 ft | 466 kts | 317° |
| 2026-05-06 14:15 | 0.38187 | 101.48404 | 38023 ft | 459 kts | 318° |
| 2026-05-06 14:15 | 0.40713 | 101.46437 | 37725 ft | 461 kts | 332° |
| 2026-05-06 14:16 | 0.43623 | 101.45177 | 37887 ft | 457 kts | 346° |
| 2026-05-06 14:16 | 0.46765 | 101.44697 | 37761 ft | 458 kts | 1° |
| 2026-05-06 14:16 | 0.53128 | 101.44951 | 37783 ft | 460 kts | 4° |
| 2026-05-06 14:17 | 0.59518 | 101.45327 | 37814 ft | 461 kts | 5° |
| 2026-05-06 14:17 | 0.65924 | 101.45759 | 37803 ft | 461 kts | 5° |
| 2026-05-06 14:18 | 0.72323 | 101.46195 | 37857 ft | 463 kts | 5° |
| 2026-05-06 14:18 | 0.78732 | 101.46631 | 37775 ft | 460 kts | 5° |
| 2026-05-06 14:19 | 0.85110 | 101.47067 | 37824 ft | 461 kts | 5° |
| 2026-05-06 14:19 | 0.91486 | 101.47502 | 37822 ft | 459 kts | 5° |
| 2026-05-06 14:20 | 0.94663 | 101.47718 | 37604 ft | 454 kts | 5° |
| 2026-05-06 14:20 | 0.97810 | 101.47935 | 36834 ft | 455 kts | 5° |
| 2026-05-06 14:20 | 1.00990 | 101.48152 | 35927 ft | 461 kts | 5° |
| 2026-05-06 14:20 | 1.04202 | 101.48371 | 35160 ft | 464 kts | 5° |
| 2026-05-06 14:21 | 1.07425 | 101.48591 | 34463 ft | 465 kts | 5° |
| 2026-05-06 14:21 | 1.10658 | 101.48812 | 33712 ft | 467 kts | 5° |
| 2026-05-06 14:21 | 1.13905 | 101.49035 | 32951 ft | 468 kts | 5° |
| 2026-05-06 14:21 | 1.17137 | 101.49254 | 32334 ft | 465 kts | 6° |
| 2026-05-06 14:22 | 1.20351 | 101.49474 | 31829 ft | 460 kts | 6° |
| 2026-05-06 14:22 | 1.23526 | 101.49691 | 31312 ft | 455 kts | 6° |
| 2026-05-06 14:22 | 1.26673 | 101.49906 | 30741 ft | 453 kts | 6° |
| 2026-05-06 14:22 | 1.29816 | 101.50121 | 30155 ft | 452 kts | 6° |
| 2026-05-06 14:23 | 1.32943 | 101.50334 | 29530 ft | 450 kts | 6° |
| 2026-05-06 14:23 | 1.36087 | 101.50549 | 28888 ft | 454 kts | 6° |
| 2026-05-06 14:23 | 1.39244 | 101.50765 | 28315 ft | 455 kts | 6° |
| 2026-05-06 14:23 | 1.42398 | 101.50980 | 27764 ft | 453 kts | 6° |
| 2026-05-06 14:24 | 1.45533 | 101.51194 | 27199 ft | 450 kts | 6° |
| 2026-05-06 14:24 | 1.48642 | 101.51407 | 26641 ft | 446 kts | 6° |
| 2026-05-06 14:24 | 1.51718 | 101.51617 | 26092 ft | 442 kts | 6° |
| 2026-05-06 14:24 | 1.54772 | 101.51826 | 25542 ft | 437 kts | 6° |
| 2026-05-06 14:25 | 1.57759 | 101.52030 | 24937 ft | 436 kts | 6° |
| 2026-05-06 14:25 | 1.60845 | 101.52241 | 24102 ft | 442 kts | 6° |
| 2026-05-06 14:25 | 1.63871 | 101.52447 | 23572 ft | 440 kts | 6° |
| 2026-05-06 14:25 | 1.66943 | 101.52657 | 22994 ft | 434 kts | 6° |
| 2026-05-06 14:26 | 1.69946 | 101.52862 | 22213 ft | 433 kts | 6° |
| 2026-05-06 14:26 | 1.72941 | 101.53067 | 21685 ft | 429 kts | 6° |
| 2026-05-06 14:26 | 1.75895 | 101.53269 | 21171 ft | 425 kts | 6° |
| 2026-05-06 14:26 | 1.78852 | 101.53493 | 20393 ft | 427 kts | 10° |
| 2026-05-06 14:27 | 1.81649 | 101.54322 | 19977 ft | 414 kts | 28° |
| 2026-05-06 14:27 | 1.83988 | 101.55882 | 19418 ft | 400 kts | 43° |
| 2026-05-06 14:27 | 1.85814 | 101.57949 | 18738 ft | 394 kts | 56° |
| 2026-05-06 14:27 | 1.87414 | 101.60150 | 18165 ft | 388 kts | 54° |
| 2026-05-06 14:28 | 1.89015 | 101.62290 | 17532 ft | 383 kts | 54° |
| 2026-05-06 14:28 | 1.90608 | 101.64401 | 16926 ft | 377 kts | 54° |
| 2026-05-06 14:28 | 1.92157 | 101.66444 | 16382 ft | 370 kts | 54° |
| 2026-05-06 14:28 | 1.93694 | 101.68469 | 15853 ft | 361 kts | 54° |
| 2026-05-06 14:29 | 1.95196 | 101.70446 | 15396 ft | 354 kts | 53° |
| 2026-05-06 14:29 | 1.96666 | 101.72381 | 15016 ft | 345 kts | 54° |
| 2026-05-06 14:29 | 1.98102 | 101.74269 | 14634 ft | 337 kts | 53° |
| 2026-05-06 14:29 | 1.99514 | 101.76121 | 14126 ft | 334 kts | 53° |
| 2026-05-06 14:30 | 2.00914 | 101.77954 | 13614 ft | 331 kts | 53° |
| 2026-05-06 14:30 | 2.02307 | 101.79780 | 13028 ft | 329 kts | 53° |
| 2026-05-06 14:30 | 2.03690 | 101.81593 | 12444 ft | 327 kts | 53° |
| 2026-05-06 14:30 | 2.05064 | 101.83393 | 11883 ft | 325 kts | 53° |
| 2026-05-06 14:31 | 2.06435 | 101.85187 | 11343 ft | 323 kts | 53° |
| 2026-05-06 14:31 | 2.07795 | 101.86968 | 10813 ft | 322 kts | 53° |
| 2026-05-06 14:31 | 2.09140 | 101.88744 | 10289 ft | 319 kts | 56° |
| 2026-05-06 14:31 | 2.09972 | 101.90762 | 9778 ft | 314 kts | 83° |
| 2026-05-06 14:32 | 2.09765 | 101.92902 | 9208 ft | 311 kts | 108° |
| 2026-05-06 14:32 | 2.09085 | 101.94947 | 8632 ft | 310 kts | 108° |
| 2026-05-06 14:32 | 2.08452 | 101.96999 | 8119 ft | 307 kts | 107° |
| 2026-05-06 14:32 | 2.07964 | 101.99067 | 7563 ft | 307 kts | 94° |
| 2026-05-06 14:33 | 2.07911 | 102.01182 | 7207 ft | 300 kts | 91° |
| 2026-05-06 14:33 | 2.07858 | 102.03208 | 7133 ft | 283 kts | 92° |
| 2026-05-06 14:33 | 2.07831 | 102.05156 | 7083 ft | 284 kts | 85° |
| 2026-05-06 14:33 | 2.08510 | 102.07031 | 6979 ft | 296 kts | 53° |
| 2026-05-06 14:34 | 2.10115 | 102.08319 | 6992 ft | 302 kts | 23° |
| 2026-05-06 14:34 | 2.12204 | 102.08736 | 7010 ft | 307 kts | 359° |
| 2026-05-06 14:34 | 2.14282 | 102.08396 | 7033 ft | 309 kts | 348° |
| 2026-05-06 14:34 | 2.16432 | 102.08034 | 7020 ft | 309 kts | 351° |
| 2026-05-06 14:35 | 2.18529 | 102.07699 | 7021 ft | 310 kts | 351° |
| 2026-05-06 14:35 | 2.20654 | 102.07346 | 7026 ft | 296 kts | 350° |
| 2026-05-06 14:35 | 2.22636 | 102.07003 | 6851 ft | 284 kts | 350° |
| 2026-05-06 14:35 | 2.24525 | 102.06678 | 6635 ft | 274 kts | 351° |
| 2026-05-06 14:36 | 2.26369 | 102.06363 | 6436 ft | 264 kts | 351° |
| 2026-05-06 14:36 | 2.28141 | 102.06061 | 6251 ft | 254 kts | 351° |
| 2026-05-06 14:36 | 2.29848 | 102.05773 | 6064 ft | 244 kts | 351° |
| 2026-05-06 14:36 | 2.31505 | 102.05704 | 5841 ft | 235 kts | 12° |
| 2026-05-06 14:37 | 2.33037 | 102.06154 | 5615 ft | 226 kts | 19° |
| 2026-05-06 14:37 | 2.34533 | 102.06675 | 5175 ft | 230 kts | 20° |
| 2026-05-06 14:37 | 2.36046 | 102.07204 | 4798 ft | 230 kts | 20° |
| 2026-05-06 14:37 | 2.37547 | 102.07728 | 4584 ft | 228 kts | 20° |
| 2026-05-06 14:38 | 2.39048 | 102.08250 | 4499 ft | 229 kts | 20° |
| 2026-05-06 14:38 | 2.40560 | 102.08772 | 4500 ft | 230 kts | 20° |
| 2026-05-06 14:38 | 2.42072 | 102.09298 | 4504 ft | 230 kts | 20° |
| 2026-05-06 14:38 | 2.43584 | 102.09824 | 4516 ft | 231 kts | 20° |
| 2026-05-06 14:39 | 2.45099 | 102.10350 | 4519 ft | 230 kts | 20° |
| 2026-05-06 14:39 | 2.46626 | 102.10836 | 4508 ft | 231 kts | 10° |
| 2026-05-06 14:39 | 2.48203 | 102.10695 | 4464 ft | 230 kts | 339° |
| 2026-05-06 14:39 | 2.49626 | 102.09953 | 4526 ft | 232 kts | 330° |
| 2026-05-06 14:40 | 2.51021 | 102.09130 | 4538 ft | 233 kts | 330° |
| 2026-05-06 14:40 | 2.52414 | 102.08302 | 4523 ft | 230 kts | 330° |
| 2026-05-06 14:40 | 2.53744 | 102.07512 | 4551 ft | 215 kts | 330° |
| 2026-05-06 14:40 | 2.54990 | 102.06769 | 4494 ft | 202 kts | 330° |
| 2026-05-06 14:41 | 2.56190 | 102.06054 | 4472 ft | 200 kts | 330° |
| 2026-05-06 14:41 | 2.57385 | 102.05341 | 4499 ft | 200 kts | 330° |
| 2026-05-06 14:41 | 2.58550 | 102.04570 | 4499 ft | 203 kts | 316° |
| 2026-05-06 14:41 | 2.59206 | 102.03366 | 4404 ft | 199 kts | 277° |
| 2026-05-06 14:42 | 2.58980 | 102.02028 | 4431 ft | 198 kts | 238° |
| 2026-05-06 14:42 | 2.58006 | 102.01081 | 4495 ft | 197 kts | 206° |
| 2026-05-06 14:42 | 2.56744 | 102.00516 | 4630 ft | 200 kts | 200° |
| 2026-05-06 14:42 | 2.55454 | 102.00000 | 4574 ft | 199 kts | 200° |
| 2026-05-06 14:43 | 2.54278 | 101.99285 | 4428 ft | 199 kts | 225° |
| 2026-05-06 14:43 | 2.53453 | 101.98175 | 4551 ft | 203 kts | 236° |
| 2026-05-06 14:43 | 2.52695 | 101.96971 | 4566 ft | 205 kts | 236° |
| 2026-05-06 14:43 | 2.52192 | 101.96183 | 4512 ft | 203 kts | 236° |
| 2026-05-06 14:44 | 2.51190 | 101.94588 | 4463 ft | 202 kts | 237° |
| 2026-05-06 14:44 | 2.50443 | 101.93395 | 4509 ft | 203 kts | 237° |
| 2026-05-06 14:44 | 2.49947 | 101.92604 | 4516 ft | 203 kts | 237° |
| 2026-05-06 14:45 | 2.49503 | 101.89982 | 4443 ft | 200 kts | 295° |
| 2026-05-06 14:45 | 2.50354 | 101.88896 | 4498 ft | 202 kts | 320° |
| 2026-05-06 14:45 | 2.51476 | 101.88019 | 4558 ft | 207 kts | 324° |
| 2026-05-06 14:45 | 2.52656 | 101.87180 | 4536 ft | 209 kts | 326° |
| 2026-05-06 14:46 | 2.53854 | 101.86363 | 4515 ft | 208 kts | 327° |
| 2026-05-06 14:46 | 2.55057 | 101.85550 | 4405 ft | 210 kts | 327° |
| 2026-05-06 14:46 | 2.56270 | 101.84732 | 4145 ft | 210 kts | 327° |
| 2026-05-06 14:46 | 2.57478 | 101.83918 | 3894 ft | 209 kts | 327° |
| 2026-05-06 14:47 | 2.58671 | 101.83113 | 3675 ft | 206 kts | 327° |
| 2026-05-06 14:47 | 2.59865 | 101.82307 | 3409 ft | 207 kts | 327° |
| 2026-05-06 14:47 | 2.61062 | 101.81508 | 3070 ft | 207 kts | 328° |
| 2026-05-06 14:47 | 2.62229 | 101.80718 | 2905 ft | 196 kts | 325° |
| 2026-05-06 14:48 | 2.63360 | 101.79943 | 2570 ft | 195 kts | 327° |
| 2026-05-06 14:48 | 2.64438 | 101.79218 | 2444 ft | 183 kts | 327° |
| 2026-05-06 14:48 | 2.65476 | 101.78531 | 2218 ft | 177 kts | 327° |
| 2026-05-06 14:48 | 2.66489 | 101.77831 | 1983 ft | 174 kts | 326° |
| 2026-05-06 14:49 | 2.67459 | 101.77195 | 1746 ft | 161 kts | 327° |
| 2026-05-06 14:49 | 2.68367 | 101.76590 | 1591 ft | 153 kts | 328° |
| 2026-05-06 14:49 | 2.69256 | 101.75986 | 1397 ft | 156 kts | 327° |
| 2026-05-06 14:49 | 2.70143 | 101.75376 | 1187 ft | 153 kts | 324° |
| 2026-05-06 14:50 | 2.71032 | 101.74782 | 1028 ft | 153 kts | 326° |
| 2026-05-06 14:50 | 2.71903 | 101.74186 | 761 ft | 149 kts | 327° |
| 2026-05-06 14:50 | 2.72762 | 101.73627 | 524 ft | 146 kts | 326° |
| 2026-05-06 14:50 | 2.73586 | 101.73034 | 379 ft | 147 kts | 326° |
| 2026-05-06 14:51 | 2.74434 | 101.72476 | 192 ft | 147 kts | 326° |
| 2026-05-06 14:51 | 2.75259 | 101.71913 | 83 ft | 135 kts | 328° |
| 2026-05-06 14:51 | 2.75865 | 101.71516 | 72 ft | 70 kts | 326° |
| 2026-05-06 14:51 | 2.76127 | 101.71341 | 68 ft | 23 kts | 326° |
| 2026-05-06 14:52 | 2.76172 | 101.71311 | 68 ft | 9 kts | 326° |
| 2026-05-06 14:52 | 2.76269 | 101.71246 | 70 ft | 23 kts | 325° |
| 2026-05-06 14:52 | 2.76407 | 101.71148 | 69 ft | 26 kts | 321° |
| 2026-05-06 14:52 | 2.76515 | 101.71037 | 67 ft | 22 kts | 307° |
| 2026-05-06 14:53 | 2.76578 | 101.70913 | 62 ft | 13 kts | 287° |
| 2026-05-06 14:53 | 2.76550 | 101.70847 | 61 ft | 9 kts | 201° |
| 2026-05-06 14:53 | 2.76502 | 101.70860 | 67 ft | 7 kts | 145° |
| 2026-05-06 14:53 | 2.76457 | 101.70891 | 61 ft | 9 kts | 146° |
| 2026-05-06 14:54 | 2.76400 | 101.70929 | 65 ft | 11 kts | 146° |
| 2026-05-06 14:54 | 2.76327 | 101.70979 | 64 ft | 14 kts | 146° |
| 2026-05-06 14:54 | 2.76239 | 101.71039 | 69 ft | 16 kts | 146° |
| 2026-05-06 14:54 | 2.76142 | 101.71102 | 70 ft | 17 kts | 147° |
| 2026-05-06 14:55 | 2.76038 | 101.71169 | 70 ft | 19 kts | 147° |
| 2026-05-06 14:55 | 2.75934 | 101.71237 | 70 ft | 17 kts | 145° |
| 2026-05-06 14:55 | 2.75834 | 101.71309 | 76 ft | 18 kts | 144° |
| 2026-05-06 14:55 | 2.75721 | 101.71382 | 72 ft | 17 kts | 149° |
| 2026-05-06 14:56 | 2.75625 | 101.71335 | 70 ft | 19 kts | 235° |
| 2026-05-06 14:56 | 2.75550 | 101.71222 | 70 ft | 21 kts | 236° |
| 2026-05-06 14:56 | 2.75467 | 101.71098 | 75 ft | 18 kts | 237° |
| 2026-05-06 14:56 | 2.75394 | 101.70989 | 71 ft | 20 kts | 236° |
| 2026-05-06 14:57 | 2.75333 | 101.70896 | 72 ft | 14 kts | 237° |
| 2026-05-06 14:57 | 2.75296 | 101.70838 | 75 ft | 0 kts | 250° |
| 2026-05-06 14:57 | 2.75301 | 101.70823 | 71 ft | 6 kts | 297° |
| 2026-05-06 14:57 | 2.75339 | 101.70799 | 75 ft | 7 kts | 333° |
| 2026-05-06 14:58 | 2.75354 | 101.70789 | 75 ft | 2 kts | 326° |
| 2026-05-06 14:58 | 2.75355 | 101.70788 | 75 ft | 0 kts | 326° |